Time;durP1;ratioP1;P1;durP2;ratioP2;P2;SDS_P1;SDS_P2;PMS_P1;PMS_P2;Temp;Humidity;BMP_temperature;BMP_pressure;BME280_temperature;BME280_humidity;BME280_pressure;Samples;Min_cycle;Max_cycle;Signal;HPM_P1;HPM_P2
2024/04/15 00:01:02;;;;;;;5.40;5.00;;;;;;;;;;5597085;25;20270;-75
2024/04/15 00:03:30;;;;;;;6.47;5.00;;;;;;;;;;5600275;25;20560;-74
2024/04/15 00:05:55;;;;;;;5.70;5.30;;;;;;;;;;5584828;25;20226;-75
2024/04/15 00:08:24;;;;;;;5.37;4.90;;;;;;;;;;5588615;25;20573;-75
2024/04/15 00:10:49;;;;;;;5.57;5.00;;;;;;;;;;5595235;25;20231;-75
2024/04/15 00:13:18;;;;;;;6.93;5.50;;;;;;;;;;5593208;25;20812;-76
2024/04/15 00:15:52;;;;;;;6.73;4.90;;;;;;;;;;5603979;25;20264;-75
2024/04/15 00:18:20;;;;;;;6.10;5.50;;;;;;;;;;5584623;25;20507;-75
2024/04/15 00:20:46;;;;;;;6.40;5.90;;;;;;;;;;5587773;25;20531;-75
2024/04/15 00:23:14;;;;;;;7.57;7.07;;;;;;;;;;5585840;25;20456;-74
2024/04/15 00:25:40;;;;;;;6.73;5.57;;;;;;;;;;5600065;25;20272;-74
2024/04/15 00:28:08;;;;;;;6.60;6.10;;;;;;;;;;5588902;25;20471;-75
2024/04/15 00:30:33;;;;;;;6.80;6.13;;;;;;;;;;5595369;25;20711;-74
2024/04/15 00:33:04;;;;;;;6.17;5.77;;;;;;;;;;5591670;25;20522;-75
2024/04/15 00:35:30;;;;;;;7.03;5.80;;;;;;;;;;5576706;25;20612;-73
2024/04/15 00:37:58;;;;;;;5.23;4.93;;;;;;;;;;5578847;25;20536;-75
2024/04/15 00:40:23;;;;;;;8.87;6.67;;;;;;;;;;5588400;25;20234;-76
2024/04/15 00:42:52;;;;;;;4.83;4.50;;;;;;;;;;5583431;25;20475;-75
2024/04/15 00:45:26;;;;;;;5.37;4.97;;;;;;;;;;5593224;25;20230;-76
2024/04/15 00:47:54;;;;;;;5.60;5.20;;;;;;;;;;5610228;25;20513;-76
2024/04/15 00:50:23;;;;;;;5.30;4.90;;;;;;;;;;5589927;25;20460;-76
2024/04/15 00:52:51;;;;;;;5.80;5.00;;;;;;;;;;5574140;25;20455;-75
2024/04/15 00:55:17;;;;;;;6.07;5.57;;;;;;;;;;5597516;25;20451;-76
2024/04/15 00:57:45;;;;;;;8.47;7.77;;;;;;;;;;5590866;25;20532;-75
2024/04/15 01:00:12;;;;;;;7.03;5.90;;;;;;;;;;5605722;25;20230;-75
2024/04/15 01:02:41;;;;;;;5.63;5.10;;;;;;;;;;5591675;25;20470;-75
2024/04/15 01:05:06;;;;;;;5.53;4.93;;;;;;;;;;5585807;25;20467;-76
2024/04/15 01:07:37;;;;;;;5.00;4.63;;;;;;;;;;5591260;25;20524;-75
2024/04/15 01:10:03;;;;;;;6.10;5.50;;;;;;;;;;5584649;25;20231;-74
2024/04/15 01:12:32;;;;;;;5.87;5.03;;;;;;;;;;5597257;25;20522;-75
2024/04/15 01:14:57;;;;;;;6.40;5.83;;;;;;;;;;5592840;25;20468;-76
2024/04/15 01:17:25;;;;;;;7.83;4.90;;;;;;;;;;5599244;25;20526;-75
2024/04/15 01:19:51;;;;;;;5.63;5.23;;;;;;;;;;5595401;25;20364;-75
2024/04/15 01:22:26;;;;;;;7.53;5.43;;;;;;;;;;5589746;25;20463;-75
2024/04/15 01:24:54;;;;;;;6.90;4.57;;;;;;;;;;5585903;25;20231;-75
2024/04/15 01:27:22;;;;;;;6.83;5.20;;;;;;;;;;5589990;25;20467;-75
2024/04/15 01:29:48;;;;;;;7.67;4.77;;;;;;;;;;5593159;25;20459;-74
2024/04/15 01:32:16;;;;;;;11.43;6.50;;;;;;;;;;5579994;25;20452;-75
2024/04/15 01:34:41;;;;;;;6.43;5.57;;;;;;;;;;5589037;25;20239;-74
2024/04/15 01:37:10;;;;;;;6.13;5.60;;;;;;;;;;5599423;25;20860;-74
2024/04/15 01:39:35;;;;;;;5.93;5.53;;;;;;;;;;5585414;25;20360;-75
2024/04/15 01:42:06;;;;;;;6.43;6.03;;;;;;;;;;5600898;25;20454;-75
2024/04/15 01:44:32;;;;;;;5.57;5.07;;;;;;;;;;5600264;25;20264;-75
2024/04/15 01:47:00;;;;;;;7.70;5.47;;;;;;;;;;5595764;25;20521;-74
2024/04/15 01:49:26;;;;;;;7.40;5.70;;;;;;;;;;5604011;25;20461;-75
2024/04/15 01:51:54;;;;;;;5.87;5.40;;;;;;;;;;5600697;25;20545;-75
2024/04/15 01:54:20;;;;;;;4.83;4.50;;;;;;;;;;5600565;25;20243;-76
2024/04/15 01:56:49;;;;;;;4.97;3.83;;;;;;;;;;5587212;25;20459;-75
2024/04/15 01:59:17;;;;;;;6.17;4.90;;;;;;;;;;5593377;25;20471;-75
2024/04/15 02:01:45;;;;;;;5.20;4.80;;;;;;;;;;5616856;25;20463;-74
2024/04/15 02:04:10;;;;;;;5.63;5.23;;;;;;;;;;5562378;25;20469;-75
2024/04/15 02:06:38;;;;;;;8.00;5.30;;;;;;;;;;5605945;25;21047;-75
2024/04/15 02:09:04;;;;;;;6.37;4.90;;;;;;;;;;5603629;25;20227;-75
2024/04/15 02:11:32;;;;;;;5.60;5.00;;;;;;;;;;5586625;25;20478;-75
2024/04/15 02:13:58;;;;;;;8.30;5.93;;;;;;;;;;5593025;25;20257;-74
2024/04/15 02:16:28;;;;;;;7.37;5.43;;;;;;;;;;5596674;25;20466;-74
2024/04/15 02:18:54;;;;;;;6.53;5.27;;;;;;;;;;5582211;25;20277;-75
2024/04/15 02:21:22;;;;;;;6.57;5.97;;;;;;;;;;5595853;25;20462;-75
2024/04/15 02:23:48;;;;;;;6.60;5.30;;;;;;;;;;5586628;25;20691;-74
2024/04/15 02:26:16;;;;;;;5.50;5.10;;;;;;;;;;5572240;25;20471;-75
2024/04/15 02:28:41;;;;;;;4.90;4.50;;;;;;;;;;5587396;25;20269;-75
2024/04/15 02:31:10;;;;;;;5.57;4.80;;;;;;;;;;5578984;25;20452;-74
2024/04/15 02:33:38;;;;;;;11.90;5.13;;;;;;;;;;5584045;25;20282;-74
2024/04/15 02:36:06;;;;;;;5.40;4.10;;;;;;;;;;5592778;25;20466;-75
2024/04/15 02:38:32;;;;;;;5.60;5.00;;;;;;;;;;5597784;25;20462;-74
2024/04/15 02:41:00;;;;;;;7.90;5.10;;;;;;;;;;5583634;25;20465;-74
2024/04/15 02:43:25;;;;;;;5.17;4.70;;;;;;;;;;5597060;25;20268;-74
2024/04/15 02:45:54;;;;;;;8.17;4.90;;;;;;;;;;5588438;25;20462;-74
2024/04/15 02:48:19;;;;;;;7.60;5.50;;;;;;;;;;5585230;25;20235;-74
2024/04/15 02:50:50;;;;;;;6.83;6.17;;;;;;;;;;5589201;25;20470;-75
2024/04/15 02:53:15;;;;;;;6.07;5.50;;;;;;;;;;5592770;25;20226;-74
2024/04/15 02:55:44;;;;;;;6.87;6.27;;;;;;;;;;5582970;25;20480;-74
2024/04/15 02:58:09;;;;;;;8.10;6.20;;;;;;;;;;5587848;25;20313;-75
2024/04/15 03:00:37;;;;;;;9.23;7.70;;;;;;;;;;5607816;25;20447;-76
2024/04/15 03:03:03;;;;;;;7.80;7.00;;;;;;;;;;5591930;25;20273;-75
2024/04/15 03:05:33;;;;;;;8.50;7.57;;;;;;;;;;5578947;25;20466;-75
2024/04/15 03:08:01;;;;;;;15.63;8.40;;;;;;;;;;5598071;25;20592;-75
2024/04/15 03:10:29;;;;;;;8.10;6.97;;;;;;;;;;5584514;25;20451;-76
2024/04/15 03:12:55;;;;;;;9.03;8.00;;;;;;;;;;5605641;25;20867;-75
2024/04/15 03:15:23;;;;;;;8.47;7.23;;;;;;;;;;5598759;25;21100;-76
2024/04/15 03:17:48;;;;;;;9.50;7.80;;;;;;;;;;5598760;25;20246;-75
2024/04/15 03:20:17;;;;;;;12.67;9.33;;;;;;;;;;5590136;25;20518;-75
2024/04/15 03:22:45;;;;;;;10.70;7.73;;;;;;;;;;5562811;25;20227;-75
2024/04/15 03:25:16;;;;;;;10.43;8.57;;;;;;;;;;5599469;25;20552;-75
2024/04/15 03:27:42;;;;;;;10.77;8.10;;;;;;;;;;5602272;25;20950;-75
2024/04/15 03:30:10;;;;;;;9.30;8.37;;;;;;;;;;5586712;25;20460;-75
2024/04/15 03:32:36;;;;;;;10.63;8.80;;;;;;;;;;5589583;25;20338;-76
2024/04/15 03:35:04;;;;;;;8.90;8.03;;;;;;;;;;5577501;25;20490;-75
2024/04/15 03:37:32;;;;;;;8.27;7.47;;;;;;;;;;5599329;25;20268;-75
2024/04/15 03:40:00;;;;;;;10.07;8.20;;;;;;;;;;5585210;25;20527;-75
2024/04/15 03:42:31;;;;;;;11.20;7.97;;;;;;;;;;5569702;25;20461;-75
2024/04/15 03:44:56;;;;;;;12.50;8.50;;;;;;;;;;5602147;25;20458;-76
2024/04/15 03:47:24;;;;;;;10.10;8.77;;;;;;;;;;5590658;25;20534;-75
2024/04/15 03:49:50;;;;;;;12.07;9.13;;;;;;;;;;5593595;25;20237;-75
2024/04/15 03:52:18;;;;;;;9.73;8.77;;;;;;;;;;5608037;25;20466;-75
2024/04/15 03:54:44;;;;;;;12.37;8.83;;;;;;;;;;5595000;25;20223;-75
2024/04/15 03:57:12;;;;;;;11.73;9.23;;;;;;;;;;5592779;25;20518;-75
2024/04/15 03:59:41;;;;;;;12.63;9.23;;;;;;;;;;5596147;25;20573;-75
2024/04/15 04:02:09;;;;;;;10.00;9.00;;;;;;;;;;5573111;25;20463;-75
2024/04/15 04:04:35;;;;;;;13.83;9.57;;;;;;;;;;5586372;25;20472;-76
2024/04/15 04:07:04;;;;;;;12.10;10.30;;;;;;;;;;5572404;25;20573;-75
2024/04/15 04:09:29;;;;;;;13.03;9.40;;;;;;;;;;5596168;25;20567;-75
2024/04/15 04:11:58;;;;;;;12.43;11.13;;;;;;;;;;5567516;25;20483;-76
2024/04/15 04:14:23;;;;;;;11.90;10.37;;;;;;;;;;5566175;25;20260;-75
2024/04/15 04:16:54;;;;;;;12.10;10.70;;;;;;;;;;5572346;25;20469;-75
2024/04/15 04:19:21;;;;;;;11.20;9.43;;;;;;;;;;5594463;25;20232;-75
2024/04/15 04:21:49;;;;;;;16.50;10.77;;;;;;;;;;5567232;25;20452;-75
2024/04/15 04:24:15;;;;;;;14.63;10.00;;;;;;;;;;5573137;25;20521;-75
2024/04/15 04:26:43;;;;;;;15.40;10.93;;;;;;;;;;5574792;25;20463;-76
2024/04/15 04:29:09;;;;;;;12.17;10.80;;;;;;;;;;5589589;25;20230;-76
2024/04/15 04:31:37;;;;;;;11.47;10.27;;;;;;;;;;5604610;25;20510;-76
2024/04/15 04:34:05;;;;;;;13.50;10.87;;;;;;;;;;5559995;25;20273;-76
2024/04/15 04:36:33;;;;;;;16.60;12.13;;;;;;;;;;5573489;25;20467;-76
2024/04/15 04:38:59;;;;;;;16.60;11.67;;;;;;;;;;5572976;25;20517;-75
2024/04/15 04:41:27;;;;;;;12.77;11.57;;;;;;;;;;5594542;25;20468;-75
2024/04/15 04:43:53;;;;;;;14.00;11.80;;;;;;;;;;5598953;25;20276;-76
2024/04/15 04:46:21;;;;;;;16.57;11.53;;;;;;;;;;5587523;25;20462;-77
2024/04/15 04:48:47;;;;;;;13.67;11.07;;;;;;;;;;5605039;25;20458;-75
2024/04/15 04:51:17;;;;;;;15.73;12.30;;;;;;;;;;5586043;25;20514;-75
2024/04/15 04:53:43;;;;;;;15.63;12.47;;;;;;;;;;5569500;25;20232;-74
2024/04/15 04:56:11;;;;;;;15.90;12.23;;;;;;;;;;5586366;25;20459;-76
2024/04/15 04:58:37;;;;;;;13.97;11.00;;;;;;;;;;5577121;25;20234;-75
2024/04/15 05:01:12;;;;;;;14.50;11.80;;;;;;;;;;5597527;25;20500;-84
2024/04/15 05:03:38;;;;;;;13.37;11.03;;;;;;;;;;5604291;25;20788;-83
2024/04/15 05:06:07;;;;;;;12.83;11.30;;;;;;;;;;5596232;25;20462;-82
2024/04/15 05:08:35;;;;;;;17.60;11.73;;;;;;;;;;5574194;25;20475;-78
2024/04/15 05:11:03;;;;;;;14.07;10.87;;;;;;;;;;5585053;25;20470;-79
2024/04/15 05:13:29;;;;;;;13.77;10.90;;;;;;;;;;5583122;25;20553;-79
2024/04/15 05:16:03;;;;;;;12.40;11.10;;;;;;;;;;5575912;25;20471;-78
2024/04/15 05:18:29;;;;;;;16.77;11.80;;;;;;;;;;5587935;25;20231;-79
2024/04/15 05:20:57;;;;;;;14.27;11.07;;;;;;;;;;5593870;25;20523;-79
2024/04/15 05:23:23;;;;;;;14.90;11.07;;;;;;;;;;5590204;25;20229;-79
2024/04/15 05:25:54;;;;;;;13.33;9.90;;;;;;;;;;5589340;25;20507;-80
2024/04/15 05:28:19;;;;;;;16.00;12.40;;;;;;;;;;5603878;25;20219;-80
2024/04/15 05:30:47;;;;;;;12.33;9.90;;;;;;;;;;5596960;25;20454;-80
2024/04/15 05:33:13;;;;;;;13.13;10.97;;;;;;;;;;5570841;25;20461;-79
2024/04/15 05:35:43;;;;;;;16.27;11.07;;;;;;;;;;5595685;25;20476;-77
2024/04/15 05:38:10;;;;;;;11.10;9.90;;;;;;;;;;5578738;25;20552;-77
2024/04/15 05:40:39;;;;;;;12.40;10.73;;;;;;;;;;5583200;25;20608;-78
2024/04/15 05:43:08;;;;;;;16.20;10.17;;;;;;;;;;5584454;25;20463;-78
2024/04/15 05:45:36;;;;;;;13.33;10.10;;;;;;;;;;5573972;25;20460;-76
2024/04/15 05:48:02;;;;;;;12.83;10.40;;;;;;;;;;5593550;25;21424;-76
2024/04/15 05:50:30;;;;;;;13.53;9.13;;;;;;;;;;5570611;25;20460;-78
2024/04/15 05:52:56;;;;;;;14.40;10.23;;;;;;;;;;5562579;25;20273;-78
2024/04/15 05:55:24;;;;;;;13.40;9.80;;;;;;;;;;5584885;25;20466;-77
2024/04/15 05:57:50;;;;;;;11.40;9.57;;;;;;;;;;5575841;25;20580;-78
2024/04/15 06:00:21;;;;;;;15.77;10.73;;;;;;;;;;5581137;25;20532;-77
2024/04/15 06:02:47;;;;;;;12.17;10.77;;;;;;;;;;5572390;25;20782;-77
2024/04/15 06:05:15;;;;;;;12.10;10.83;;;;;;;;;;5576604;25;20471;-77
2024/04/15 06:07:41;;;;;;;14.43;10.00;;;;;;;;;;5580412;25;20242;-77
2024/04/15 06:10:09;;;;;;;13.43;10.47;;;;;;;;;;5582924;25;20448;-76
2024/04/15 06:12:35;;;;;;;10.87;9.80;;;;;;;;;;5573038;25;20460;-77
2024/04/15 06:15:03;;;;;;;12.37;11.17;;;;;;;;;;5581830;25;21072;-78
2024/04/15 06:17:32;;;;;;;13.40;11.57;;;;;;;;;;5565837;25;20232;-77
2024/04/15 06:20:00;;;;;;;15.00;11.73;;;;;;;;;;5571883;25;20456;-76
2024/04/15 06:22:25;;;;;;;14.60;11.80;;;;;;;;;;5580116;25;20503;-77
2024/04/15 06:24:54;;;;;;;14.87;11.67;;;;;;;;;;5589931;25;20468;-77
2024/04/15 06:27:20;;;;;;;15.30;11.97;;;;;;;;;;5599425;25;20732;-78
2024/04/15 06:29:48;;;;;;;15.40;12.07;;;;;;;;;;5596006;25;20447;-78
2024/04/15 06:32:14;;;;;;;15.77;12.00;;;;;;;;;;5583751;25;20226;-79
2024/04/15 06:34:44;;;;;;;13.10;11.80;;;;;;;;;;5564078;25;20549;-78
2024/04/15 06:37:10;;;;;;;13.90;12.50;;;;;;;;;;5581518;25;20231;-79
2024/04/15 06:39:38;;;;;;;16.63;12.10;;;;;;;;;;5598455;25;20920;-78
2024/04/15 06:42:04;;;;;;;14.00;12.47;;;;;;;;;;5595395;25;20265;-79
2024/04/15 06:44:35;;;;;;;16.73;14.40;;;;;;;;;;5587656;25;20515;-78
2024/04/15 06:47:00;;;;;;;16.20;14.27;;;;;;;;;;5573879;25;20462;-78
2024/04/15 06:49:29;;;;;;;20.53;16.10;;;;;;;;;;5564895;25;20509;-78
2024/04/15 06:51:57;;;;;;;17.33;15.17;;;;;;;;;;5579308;25;20265;-78
2024/04/15 06:54:25;;;;;;;20.17;18.00;;;;;;;;;;5573545;25;20471;-78
2024/04/15 06:56:50;;;;;;;22.03;18.70;;;;;;;;;;5589960;25;21214;-78
2024/04/15 06:59:19;;;;;;;22.47;19.40;;;;;;;;;;5580828;25;20471;-77
2024/04/15 07:01:44;;;;;;;21.50;19.20;;;;;;;;;;5567008;25;20224;-76
2024/04/15 07:04:12;;;;;;;23.63;19.10;;;;;;;;;;5596582;25;20469;-76
2024/04/15 07:06:38;;;;;;;22.90;19.00;;;;;;;;;;5599383;25;20345;-78
2024/04/15 07:09:11;;;;;;;22.27;19.20;;;;;;;;;;5584705;25;20460;-77
2024/04/15 07:11:36;;;;;;;23.30;19.07;;;;;;;;;;5576508;25;20226;-76
2024/04/15 07:14:04;;;;;;;25.97;21.47;;;;;;;;;;5577274;25;20527;-76
2024/04/15 07:16:30;;;;;;;25.93;20.83;;;;;;;;;;5570903;25;20275;-77
2024/04/15 07:18:58;;;;;;;28.20;22.00;;;;;;;;;;5593570;25;20557;-77
2024/04/15 07:21:24;;;;;;;28.53;20.30;;;;;;;;;;5573097;25;20231;-75
2024/04/15 07:23:52;;;;;;;27.13;22.17;;;;;;;;;;5594064;25;20548;-76
2024/04/15 07:26:20;;;;;;;27.57;20.33;;;;;;;;;;5597711;25;20234;-76
2024/04/15 07:28:49;;;;;;;22.43;19.87;;;;;;;;;;5596069;25;20467;-77
2024/04/15 07:31:14;;;;;;;25.20;20.37;;;;;;;;;;5580309;25;20492;-77
2024/04/15 07:33:42;;;;;;;19.97;17.80;;;;;;;;;;5589806;25;20458;-77
2024/04/15 07:36:08;;;;;;;21.07;18.67;;;;;;;;;;5579623;25;20289;-78
2024/04/15 07:38:36;;;;;;;22.60;17.23;;;;;;;;;;5568716;25;20456;-77
2024/04/15 07:41:02;;;;;;;20.50;16.90;;;;;;;;;;5572365;25;20231;-77
2024/04/15 07:43:32;;;;;;;17.67;14.73;;;;;;;;;;5580943;25;20847;-77
2024/04/15 07:45:58;;;;;;;17.63;15.37;;;;;;;;;;5578804;25;20278;-76
2024/04/15 07:48:26;;;;;;;15.63;14.13;;;;;;;;;;5572785;25;20926;-78
2024/04/15 07:50:52;;;;;;;16.50;14.30;;;;;;;;;;5578604;25;20370;-77
2024/04/15 07:53:20;;;;;;;15.63;14.00;;;;;;;;;;5577185;25;20861;-77
2024/04/15 07:55:45;;;;;;;16.73;12.83;;;;;;;;;;5583297;25;20270;-76
2024/04/15 07:58:13;;;;;;;15.77;12.37;;;;;;;;;;5570734;25;20459;-78
2024/04/15 08:00:43;;;;;;;12.33;11.00;;;;;;;;;;5579152;25;20360;-78
2024/04/15 08:03:11;;;;;;;13.23;9.83;;;;;;;;;;5590837;25;20458;-76
2024/04/15 08:05:37;;;;;;;13.67;9.20;;;;;;;;;;5574671;25;20481;-76
2024/04/15 08:08:06;;;;;;;12.17;10.10;;;;;;;;;;5572795;25;20498;-76
2024/04/15 08:10:31;;;;;;;12.40;9.53;;;;;;;;;;5560641;25;20227;-77
2024/04/15 08:13:00;;;;;;;11.27;8.43;;;;;;;;;;5601038;25;20458;-79
2024/04/15 08:15:25;;;;;;;12.23;10.67;;;;;;;;;;5598399;25;20272;-78
2024/04/15 08:17:56;;;;;;;11.00;9.90;;;;;;;;;;5568592;25;20515;-78
2024/04/15 08:20:22;;;;;;;14.70;11.73;;;;;;;;;;5592810;25;20374;-78
2024/04/15 08:22:50;;;;;;;13.67;10.50;;;;;;;;;;5588553;25;20468;-78
2024/04/15 08:25:16;;;;;;;14.33;11.13;;;;;;;;;;5604989;25;20513;-80
2024/04/15 08:27:44;;;;;;;15.50;12.17;;;;;;;;;;5582555;25;20467;-77
2024/04/15 08:30:10;;;;;;;16.30;12.87;;;;;;;;;;5584960;25;20215;-78
2024/04/15 08:32:38;;;;;;;17.80;13.73;;;;;;;;;;5581453;25;20470;-77
2024/04/15 08:35:07;;;;;;;15.00;13.33;;;;;;;;;;5565623;25;20250;-80
2024/04/15 08:37:35;;;;;;;18.00;14.27;;;;;;;;;;5570478;25;20978;-78
2024/04/15 08:40:00;;;;;;;16.83;15.10;;;;;;;;;;5553416;25;21098;-79
2024/04/15 08:42:32;;;;;;;16.10;14.47;;;;;;;;;;5578802;25;20456;-79
2024/04/15 08:44:59;;;;;;;14.60;13.10;;;;;;;;;;5609390;25;20233;-78
2024/04/15 08:47:31;;;;;;;14.90;13.17;;;;;;;;;;5575979;25;20531;-77
2024/04/15 08:49:56;;;;;;;20.70;15.60;;;;;;;;;;5584965;25;20496;-76
2024/04/15 08:52:27;;;;;;;16.43;14.00;;;;;;;;;;5588144;25;20471;-77
2024/04/15 08:54:53;;;;;;;17.20;15.40;;;;;;;;;;5581784;25;20267;-77
2024/04/15 08:57:23;;;;;;;15.60;13.27;;;;;;;;;;5581826;25;20470;-78
2024/04/15 08:59:49;;;;;;;14.87;13.27;;;;;;;;;;5593002;25;20474;-78
2024/04/15 09:02:18;;;;;;;14.50;13.10;;;;;;;;;;5581565;25;20517;-78
2024/04/15 09:04:44;;;;;;;13.67;12.30;;;;;;;;;;5580899;25;20465;-77
2024/04/15 09:07:12;;;;;;;14.70;12.93;;;;;;;;;;5581481;25;20444;-78
2024/04/15 09:09:41;;;;;;;13.43;11.93;;;;;;;;;;5571026;25;20230;-78
2024/04/15 09:12:09;;;;;;;14.37;12.23;;;;;;;;;;5591318;25;20470;-76
2024/04/15 09:14:35;;;;;;;12.70;11.40;;;;;;;;;;5574003;25;20458;-77
2024/04/15 09:17:03;;;;;;;12.50;11.30;;;;;;;;;;5570684;25;20529;-76
2024/04/15 09:19:29;;;;;;;12.80;11.50;;;;;;;;;;5590391;25;20230;-76
2024/04/15 09:22:00;;;;;;;14.37;12.27;;;;;;;;;;5574802;25;20525;-77
2024/04/15 09:24:26;;;;;;;12.97;11.90;;;;;;;;;;5573295;25;20785;-78
2024/04/15 09:26:57;;;;;;;11.90;10.90;;;;;;;;;;5578930;25;20452;-78
2024/04/15 09:29:22;;;;;;;11.23;10.07;;;;;;;;;;5595313;25;20219;-77
2024/04/15 09:31:50;;;;;;;11.73;10.60;;;;;;;;;;5592804;25;20467;-77
2024/04/15 09:34:16;;;;;;;14.90;11.10;;;;;;;;;;5579623;25;20281;-78
2024/04/15 09:36:45;;;;;;;13.47;10.47;;;;;;;;;;5588766;25;20468;-78
2024/04/15 09:39:12;;;;;;;11.20;10.10;;;;;;;;;;5586308;25;20809;-77
2024/04/15 09:41:41;;;;;;;12.90;11.63;;;;;;;;;;5576362;25;20478;-76
2024/04/15 09:44:12;;;;;;;13.87;12.30;;;;;;;;;;5589577;25;20589;-78
2024/04/15 09:46:43;;;;;;;11.00;10.10;;;;;;;;;;5572808;25;20591;-78
2024/04/15 09:49:10;;;;;;;11.33;10.10;;;;;;;;;;5568724;25;20467;-78
2024/04/15 09:51:39;;;;;;;11.27;10.27;;;;;;;;;;5592439;25;20462;-76
2024/04/15 09:54:08;;;;;;;10.20;9.30;;;;;;;;;;5584452;25;20446;-76
2024/04/15 09:56:40;;;;;;;10.03;9.00;;;;;;;;;;5599815;25;20466;-76
2024/04/15 09:59:07;;;;;;;13.10;8.80;;;;;;;;;;5598762;25;20462;-78
2024/04/15 10:01:40;;;;;;;11.47;8.83;;;;;;;;;;5593725;25;20463;-81
2024/04/15 10:04:13;;;;;;;9.60;8.70;;;;;;;;;;5597241;25;20471;-81
2024/04/15 10:06:41;;;;;;;9.20;8.30;;;;;;;;;;5594757;25;20502;-82
2024/04/15 10:09:10;;;;;;;14.63;9.57;;;;;;;;;;5593849;25;20479;-81
2024/04/15 10:11:36;;;;;;;9.47;8.43;;;;;;;;;;5593576;25;20510;-78
2024/04/15 10:14:04;;;;;;;11.90;7.97;;;;;;;;;;5571239;25;20463;-83
2024/04/15 10:16:33;;;;;;;9.30;8.30;;;;;;;;;;5600193;25;20226;-83
2024/04/15 10:19:04;;;;;;;7.93;7.33;;;;;;;;;;5581271;25;20507;-82
2024/04/15 10:21:30;;;;;;;7.90;7.30;;;;;;;;;;5591610;25;21053;-82
2024/04/15 10:23:58;;;;;;;10.60;9.53;;;;;;;;;;5583582;25;20511;-82
2024/04/15 10:26:26;;;;;;;8.23;6.90;;;;;;;;;;5584314;25;20266;-82
2024/04/15 10:29:12;;;;;;;8.77;7.87;;;;;;;;;;5583936;25;20530;-82
2024/04/15 10:31:39;;;;;;;8.03;7.33;;;;;;;;;;5589399;25;20506;-82
2024/04/15 10:34:10;;;;;;;10.03;7.83;;;;;;;;;;5596628;25;20478;-83
2024/04/15 10:36:35;;;;;;;7.83;7.20;;;;;;;;;;5589118;25;20460;-79
2024/04/15 10:39:06;;;;;;;7.80;7.07;;;;;;;;;;5589644;25;21007;-80
2024/04/15 10:41:32;;;;;;;7.87;7.27;;;;;;;;;;5605861;25;20242;-80
2024/04/15 10:44:00;;;;;;;7.23;6.53;;;;;;;;;;5582437;25;20465;-79
2024/04/15 10:46:26;;;;;;;7.10;6.60;;;;;;;;;;5570156;25;20520;-81
2024/04/15 10:48:54;;;;;;;7.87;7.13;;;;;;;;;;5598523;25;20466;-80
2024/04/15 10:51:25;;;;;;;7.50;6.80;;;;;;;;;;5581530;25;20270;-80
2024/04/15 10:53:50;;;;;;;7.40;6.80;;;;;;;;;;5590488;25;20514;-80
2024/04/15 10:56:18;;;;;;;7.47;6.70;;;;;;;;;;5573791;25;20463;-79
2024/04/15 10:58:44;;;;;;;7.17;5.90;;;;;;;;;;5583617;25;20226;-81
2024/04/15 11:01:15;;;;;;;7.00;6.40;;;;;;;;;;5573279;25;21465;-80
2024/04/15 11:03:41;;;;;;;6.73;5.83;;;;;;;;;;5605129;25;20311;-81
2024/04/15 11:06:10;;;;;;;7.43;6.83;;;;;;;;;;5582920;25;20467;-81
2024/04/15 11:08:38;;;;;;;7.13;6.10;;;;;;;;;;5581322;25;20503;-81
2024/04/15 11:11:06;;;;;;;7.27;6.60;;;;;;;;;;5580718;25;20458;-81
2024/04/15 11:13:33;;;;;;;6.70;6.20;;;;;;;;;;5579649;25;20567;-81
2024/04/15 11:16:01;;;;;;;6.30;5.70;;;;;;;;;;5583650;25;20479;-81
2024/04/15 11:18:27;;;;;;;6.33;5.70;;;;;;;;;;5577930;25;20554;-79
2024/04/15 11:21:01;;;;;;;11.50;9.10;;;;;;;;;;5593742;25;20462;-80
2024/04/15 11:23:26;;;;;;;8.50;6.30;;;;;;;;;;5575778;25;20223;-80
2024/04/15 11:25:59;;;;;;;6.23;5.77;;;;;;;;;;5564416;25;20741;-80
2024/04/15 11:28:25;;;;;;;6.13;5.73;;;;;;;;;;5584146;25;20277;-81
2024/04/15 11:30:54;;;;;;;6.40;5.90;;;;;;;;;;5593068;25;20467;-81
2024/04/15 11:33:20;;;;;;;6.37;5.40;;;;;;;;;;5561691;25;20811;-79
2024/04/15 11:35:50;;;;;;;6.23;5.73;;;;;;;;;;5591269;25;20537;-83
2024/04/15 11:38:15;;;;;;;9.80;6.10;;;;;;;;;;5597858;25;20591;-81
2024/04/15 11:40:44;;;;;;;8.83;5.47;;;;;;;;;;5587224;25;20478;-80
2024/04/15 11:43:12;;;;;;;7.13;6.57;;;;;;;;;;5583760;25;20262;-81
2024/04/15 11:45:50;;;;;;;6.40;5.90;;;;;;;;;;5572065;25;20556;-79
2024/04/15 11:48:15;;;;;;;6.20;5.60;;;;;;;;;;5585743;25;20790;-80
2024/04/15 11:50:44;;;;;;;6.40;5.90;;;;;;;;;;5581339;25;20475;-80
2024/04/15 11:53:10;;;;;;;6.07;5.47;;;;;;;;;;5579608;25;20231;-80
2024/04/15 11:55:39;;;;;;;6.37;5.80;;;;;;;;;;5596493;25;20513;-80
2024/04/15 11:58:05;;;;;;;6.70;6.10;;;;;;;;;;5586828;25;20840;-81
2024/04/15 12:00:36;;;;;;;6.23;5.67;;;;;;;;;;5587987;25;20531;-81
2024/04/15 12:03:02;;;;;;;7.73;5.50;;;;;;;;;;5581851;25;20459;-81
2024/04/15 12:05:30;;;;;;;6.07;5.60;;;;;;;;;;5579590;25;20516;-80
2024/04/15 12:07:56;;;;;;;6.40;5.90;;;;;;;;;;5580708;25;20273;-78
2024/04/15 12:10:24;;;;;;;6.03;5.40;;;;;;;;;;5587232;25;20450;-79
2024/04/15 12:12:50;;;;;;;6.40;6.00;;;;;;;;;;5581063;25;20344;-81
2024/04/15 12:15:18;;;;;;;5.80;5.23;;;;;;;;;;5597909;25;20463;-80
2024/04/15 12:17:47;;;;;;;6.23;5.63;;;;;;;;;;5575045;25;20265;-81
2024/04/15 12:20:15;;;;;;;6.00;5.60;;;;;;;;;;5582822;25;20449;-83
2024/04/15 12:22:41;;;;;;;6.10;5.27;;;;;;;;;;5588937;25;20507;-80
2024/04/15 12:25:09;;;;;;;5.67;5.37;;;;;;;;;;5588291;25;20550;-81
2024/04/15 12:27:35;;;;;;;5.67;5.27;;;;;;;;;;5590538;25;20234;-82
2024/04/15 12:30:03;;;;;;;6.17;5.63;;;;;;;;;;5574871;25;21006;-80
2024/04/15 12:32:28;;;;;;;7.37;6.60;;;;;;;;;;5570159;25;20279;-80
2024/04/15 12:34:59;;;;;;;6.47;5.80;;;;;;;;;;5586503;25;20680;-81
2024/04/15 12:37:25;;;;;;;6.90;6.30;;;;;;;;;;5568548;25;20270;-80
2024/04/15 12:39:54;;;;;;;6.30;5.67;;;;;;;;;;5587277;25;20848;-80
2024/04/15 12:42:21;;;;;;;5.73;5.27;;;;;;;;;;5604424;25;20234;-80
2024/04/15 12:44:50;;;;;;;7.27;6.77;;;;;;;;;;5592671;25;20526;-82
2024/04/15 12:47:15;;;;;;;5.90;5.50;;;;;;;;;;5581967;25;20512;-80
2024/04/15 12:49:44;;;;;;;7.03;6.43;;;;;;;;;;5581943;25;20466;-79
2024/04/15 12:52:12;;;;;;;6.17;5.67;;;;;;;;;;5587315;25;20277;-80
2024/04/15 12:54:41;;;;;;;6.50;5.93;;;;;;;;;;5573998;25;20502;-80
2024/04/15 12:57:06;;;;;;;7.10;6.50;;;;;;;;;;5604370;25;20441;-79
2024/04/15 12:59:35;;;;;;;7.43;6.73;;;;;;;;;;5574725;25;20526;-80
2024/04/15 13:02:01;;;;;;;7.20;6.60;;;;;;;;;;5599465;25;20474;-79
2024/04/15 13:04:29;;;;;;;7.10;6.60;;;;;;;;;;5603811;25;20522;-79
2024/04/15 13:06:54;;;;;;;7.07;6.47;;;;;;;;;;5608478;25;20466;-81
2024/04/15 13:09:25;;;;;;;7.33;6.47;;;;;;;;;;5585449;25;20532;-81
2024/04/15 13:11:54;;;;;;;6.27;5.80;;;;;;;;;;5589758;25;20266;-82
2024/04/15 13:14:22;;;;;;;7.07;5.30;;;;;;;;;;5586026;25;20467;-81
2024/04/15 13:16:47;;;;;;;8.63;6.90;;;;;;;;;;5572988;25;20832;-80
2024/04/15 13:19:16;;;;;;;7.57;6.30;;;;;;;;;;5603624;25;20482;-82
2024/04/15 13:21:41;;;;;;;6.00;5.50;;;;;;;;;;5601207;25;20336;-81
2024/04/15 13:24:10;;;;;;;6.00;5.60;;;;;;;;;;5602243;25;20487;-87
2024/04/15 13:26:38;;;;;;;8.60;6.30;;;;;;;;;;5580652;25;20332;-81
2024/04/15 13:29:06;;;;;;;6.90;6.23;;;;;;;;;;5583342;25;20723;-84
2024/04/15 13:31:32;;;;;;;6.77;5.70;;;;;;;;;;5594995;25;20522;-83
2024/04/15 13:34:00;;;;;;;6.47;5.97;;;;;;;;;;5596703;25;20479;-84
2024/04/15 13:36:26;;;;;;;6.00;5.50;;;;;;;;;;5580711;25;20359;-82
2024/04/15 13:38:54;;;;;;;7.03;5.20;;;;;;;;;;5583741;25;20809;-85
2024/04/15 13:41:20;;;;;;;5.57;5.27;;;;;;;;;;5596637;25;20717;-83
2024/04/15 13:43:51;;;;;;;6.00;5.60;;;;;;;;;;5599341;25;20562;-81
2024/04/15 13:46:16;;;;;;;6.43;5.93;;;;;;;;;;5597773;25;20222;-82
2024/04/15 13:48:45;;;;;;;5.80;5.30;;;;;;;;;;5600006;25;20514;-83
2024/04/15 13:51:10;;;;;;;6.30;5.80;;;;;;;;;;5599792;25;20652;-83
2024/04/15 13:53:39;;;;;;;5.77;5.37;;;;;;;;;;5576356;25;20475;-83
2024/04/15 13:56:04;;;;;;;6.73;6.13;;;;;;;;;;5588675;25;20242;-83
2024/04/15 13:58:33;;;;;;;9.87;5.90;;;;;;;;;;5586083;25;20477;-82
2024/04/15 14:01:02;;;;;;;7.10;6.63;;;;;;;;;;5588811;25;20603;-81
2024/04/15 14:03:30;;;;;;;6.30;5.80;;;;;;;;;;5598936;25;20531;-81
2024/04/15 14:05:56;;;;;;;5.97;5.53;;;;;;;;;;5602624;25;20454;-81
2024/04/15 14:08:24;;;;;;;6.23;5.13;;;;;;;;;;5580838;25;20578;-81
2024/04/15 14:10:50;;;;;;;8.77;5.53;;;;;;;;;;5580613;25;20235;-81
2024/04/15 14:13:18;;;;;;;5.33;4.93;;;;;;;;;;5592059;25;20517;-82
2024/04/15 14:15:43;;;;;;;5.30;4.70;;;;;;;;;;5572011;25;20265;-82
2024/04/15 14:18:14;;;;;;;6.57;6.00;;;;;;;;;;5570229;25;20452;-82
2024/04/15 14:20:40;;;;;;;6.63;5.90;;;;;;;;;;5587517;25;20223;-81
2024/04/15 14:23:08;;;;;;;5.90;5.30;;;;;;;;;;5607221;25;20462;-82
2024/04/15 14:25:34;;;;;;;5.63;5.23;;;;;;;;;;5587160;25;20251;-83
2024/04/15 14:28:02;;;;;;;5.83;5.10;;;;;;;;;;5580749;25;20620;-82
2024/04/15 14:30:27;;;;;;;7.20;5.03;;;;;;;;;;5582113;25;20226;-81
2024/04/15 14:32:55;;;;;;;5.87;4.87;;;;;;;;;;5586817;25;20784;-82